sensor_id;sensor_type;location;lat;lon;timestamp;P1;durP1;ratioP1;P2;durP2;ratioP2
64500;SDS011;50874;24.150;-110.320;2023-04-25T00:01:34;6.43;;;1.63;;
64500;SDS011;50874;24.150;-110.320;2023-04-25T00:04:03;9.85;;;1.77;;
64500;SDS011;50874;24.150;-110.320;2023-04-25T00:06:31;9.20;;;1.90;;
64500;SDS011;50874;24.150;-110.320;2023-04-25T00:09:02;8.05;;;1.38;;
64500;SDS011;50874;24.150;-110.320;2023-04-25T00:11:29;8.45;;;1.63;;
64500;SDS011;50874;24.150;-110.320;2023-04-25T00:13:56;9.05;;;1.40;;
64500;SDS011;50874;24.150;-110.320;2023-04-25T00:16:22;9.02;;;1.58;;
64500;SDS011;50874;24.150;-110.320;2023-04-25T00:18:49;10.32;;;1.52;;
64500;SDS011;50874;24.150;-110.320;2023-04-25T00:21:19;11.70;;;1.95;;
64500;SDS011;50874;24.150;-110.320;2023-04-25T00:23:46;8.70;;;2.08;;
64500;SDS011;50874;24.150;-110.320;2023-04-25T00:26:12;11.00;;;2.22;;
64500;SDS011;50874;24.150;-110.320;2023-04-25T00:28:39;6.18;;;1.95;;
64500;SDS011;50874;24.150;-110.320;2023-04-25T00:31:06;8.77;;;1.65;;
64500;SDS011;50874;24.150;-110.320;2023-04-25T00:33:32;12.98;;;1.80;;
64500;SDS011;50874;24.150;-110.320;2023-04-25T00:36:00;8.02;;;1.77;;
64500;SDS011;50874;24.150;-110.320;2023-04-25T00:38:26;10.77;;;2.13;;
64500;SDS011;50874;24.150;-110.320;2023-04-25T00:40:52;6.68;;;1.95;;
64500;SDS011;50874;24.150;-110.320;2023-04-25T00:43:21;8.27;;;1.55;;
64500;SDS011;50874;24.150;-110.320;2023-04-25T00:45:47;8.35;;;2.10;;
64500;SDS011;50874;24.150;-110.320;2023-04-25T00:48:15;4.28;;;1.70;;
64500;SDS011;50874;24.150;-110.320;2023-04-25T00:50:45;11.32;;;2.00;;
64500;SDS011;50874;24.150;-110.320;2023-04-25T00:53:19;10.45;;;1.77;;
64500;SDS011;50874;24.150;-110.320;2023-04-25T00:55:49;19.13;;;2.83;;
64500;SDS011;50874;24.150;-110.320;2023-04-25T00:58:17;7.93;;;1.98;;
64500;SDS011;50874;24.150;-110.320;2023-04-25T01:00:47;12.68;;;2.33;;
64500;SDS011;50874;24.150;-110.320;2023-04-25T01:05:47;12.07;;;2.33;;
64500;SDS011;50874;24.150;-110.320;2023-04-25T01:08:14;12.90;;;2.33;;
64500;SDS011;50874;24.150;-110.320;2023-04-25T01:10:40;11.43;;;2.38;;
64500;SDS011;50874;24.150;-110.320;2023-04-25T01:13:07;6.38;;;1.80;;
64500;SDS011;50874;24.150;-110.320;2023-04-25T01:15:34;8.05;;;1.90;;
64500;SDS011;50874;24.150;-110.320;2023-04-25T01:18:01;9.90;;;1.83;;
64500;SDS011;50874;24.150;-110.320;2023-04-25T01:20:28;20.98;;;2.45;;
64500;SDS011;50874;24.150;-110.320;2023-04-25T01:22:57;13.85;;;2.35;;
64500;SDS011;50874;24.150;-110.320;2023-04-25T01:25:23;15.05;;;2.53;;
64500;SDS011;50874;24.150;-110.320;2023-04-25T01:27:51;13.63;;;2.28;;
64500;SDS011;50874;24.150;-110.320;2023-04-25T01:30:18;10.05;;;2.28;;
64500;SDS011;50874;24.150;-110.320;2023-04-25T01:32:44;14.07;;;2.33;;
64500;SDS011;50874;24.150;-110.320;2023-04-25T01:35:13;13.25;;;2.75;;
64500;SDS011;50874;24.150;-110.320;2023-04-25T01:37:40;10.48;;;1.92;;
64500;SDS011;50874;24.150;-110.320;2023-04-25T01:40:08;7.20;;;2.30;;
64500;SDS011;50874;24.150;-110.320;2023-04-25T01:42:36;17.85;;;2.78;;
64500;SDS011;50874;24.150;-110.320;2023-04-25T01:45:04;9.63;;;2.15;;
64500;SDS011;50874;24.150;-110.320;2023-04-25T01:47:31;12.88;;;3.13;;
64500;SDS011;50874;24.150;-110.320;2023-04-25T01:50:00;13.45;;;2.05;;
64500;SDS011;50874;24.150;-110.320;2023-04-25T01:52:28;9.10;;;1.98;;
64500;SDS011;50874;24.150;-110.320;2023-04-25T01:54:55;20.05;;;3.25;;
64500;SDS011;50874;24.150;-110.320;2023-04-25T01:57:22;18.27;;;2.40;;
64500;SDS011;50874;24.150;-110.320;2023-04-25T01:59:49;15.10;;;2.72;;
64500;SDS011;50874;24.150;-110.320;2023-04-25T02:02:16;15.10;;;3.95;;
64500;SDS011;50874;24.150;-110.320;2023-04-25T02:04:42;17.20;;;2.40;;
64500;SDS011;50874;24.150;-110.320;2023-04-25T02:07:09;11.73;;;2.13;;
64500;SDS011;50874;24.150;-110.320;2023-04-25T02:09:36;13.73;;;2.53;;
64500;SDS011;50874;24.150;-110.320;2023-04-25T02:12:02;24.15;;;3.25;;
64500;SDS011;50874;24.150;-110.320;2023-04-25T02:14:29;19.08;;;3.42;;
64500;SDS011;50874;24.150;-110.320;2023-04-25T02:16:55;15.95;;;2.90;;
64500;SDS011;50874;24.150;-110.320;2023-04-25T02:19:22;22.40;;;4.25;;
64500;SDS011;50874;24.150;-110.320;2023-04-25T02:21:48;13.48;;;2.85;;
64500;SDS011;50874;24.150;-110.320;2023-04-25T02:24:15;17.17;;;3.28;;
64500;SDS011;50874;24.150;-110.320;2023-04-25T02:26:41;21.17;;;3.72;;
64500;SDS011;50874;24.150;-110.320;2023-04-25T02:29:08;19.02;;;2.83;;
64500;SDS011;50874;24.150;-110.320;2023-04-25T02:31:35;14.48;;;2.65;;
64500;SDS011;50874;24.150;-110.320;2023-04-25T02:34:02;19.63;;;3.03;;
64500;SDS011;50874;24.150;-110.320;2023-04-25T02:36:29;18.48;;;3.47;;
64500;SDS011;50874;24.150;-110.320;2023-04-25T02:38:59;12.48;;;2.80;;
64500;SDS011;50874;24.150;-110.320;2023-04-25T02:41:26;12.13;;;2.95;;
64500;SDS011;50874;24.150;-110.320;2023-04-25T02:43:53;17.60;;;3.22;;
64500;SDS011;50874;24.150;-110.320;2023-04-25T02:46:20;11.63;;;3.30;;
64500;SDS011;50874;24.150;-110.320;2023-04-25T02:48:46;17.38;;;3.63;;
64500;SDS011;50874;24.150;-110.320;2023-04-25T02:51:13;13.68;;;2.80;;
64500;SDS011;50874;24.150;-110.320;2023-04-25T02:53:41;18.25;;;3.55;;
64500;SDS011;50874;24.150;-110.320;2023-04-25T02:56:08;15.00;;;3.53;;
64500;SDS011;50874;24.150;-110.320;2023-04-25T02:58:34;16.25;;;2.95;;
64500;SDS011;50874;24.150;-110.320;2023-04-25T03:01:01;8.20;;;2.22;;
64500;SDS011;50874;24.150;-110.320;2023-04-25T03:03:27;18.23;;;4.20;;
64500;SDS011;50874;24.150;-110.320;2023-04-25T03:05:54;28.17;;;4.60;;
64500;SDS011;50874;24.150;-110.320;2023-04-25T03:08:20;14.68;;;3.42;;
64500;SDS011;50874;24.150;-110.320;2023-04-25T03:10:47;17.15;;;3.78;;
64500;SDS011;50874;24.150;-110.320;2023-04-25T03:13:16;20.58;;;3.38;;
64500;SDS011;50874;24.150;-110.320;2023-04-25T03:15:43;15.38;;;3.00;;
64500;SDS011;50874;24.150;-110.320;2023-04-25T03:18:09;11.55;;;2.80;;
64500;SDS011;50874;24.150;-110.320;2023-04-25T03:20:36;15.40;;;3.00;;
64500;SDS011;50874;24.150;-110.320;2023-04-25T03:23:04;12.93;;;2.55;;
64500;SDS011;50874;24.150;-110.320;2023-04-25T03:25:31;13.45;;;3.33;;
64500;SDS011;50874;24.150;-110.320;2023-04-25T03:27:57;21.83;;;3.58;;
64500;SDS011;50874;24.150;-110.320;2023-04-25T03:30:24;17.75;;;2.85;;
64500;SDS011;50874;24.150;-110.320;2023-04-25T03:32:50;21.42;;;3.25;;
64500;SDS011;50874;24.150;-110.320;2023-04-25T03:35:17;12.82;;;2.40;;
64500;SDS011;50874;24.150;-110.320;2023-04-25T03:37:43;11.40;;;2.88;;
64500;SDS011;50874;24.150;-110.320;2023-04-25T03:40:10;17.70;;;3.78;;
64500;SDS011;50874;24.150;-110.320;2023-04-25T03:42:37;17.98;;;3.30;;
64500;SDS011;50874;24.150;-110.320;2023-04-25T03:45:04;13.73;;;3.67;;
64500;SDS011;50874;24.150;-110.320;2023-04-25T03:47:31;19.00;;;3.38;;
64500;SDS011;50874;24.150;-110.320;2023-04-25T03:49:57;12.13;;;2.72;;
64500;SDS011;50874;24.150;-110.320;2023-04-25T03:52:25;14.85;;;2.72;;
64500;SDS011;50874;24.150;-110.320;2023-04-25T03:54:52;28.35;;;3.90;;
64500;SDS011;50874;24.150;-110.320;2023-04-25T03:57:18;13.68;;;3.30;;
64500;SDS011;50874;24.150;-110.320;2023-04-25T03:59:45;16.70;;;3.00;;
64500;SDS011;50874;24.150;-110.320;2023-04-25T04:02:11;13.90;;;2.53;;
64500;SDS011;50874;24.150;-110.320;2023-04-25T04:04:37;22.80;;;3.53;;
64500;SDS011;50874;24.150;-110.320;2023-04-25T04:07:04;17.70;;;3.05;;
64500;SDS011;50874;24.150;-110.320;2023-04-25T04:09:30;18.33;;;3.30;;
64500;SDS011;50874;24.150;-110.320;2023-04-25T04:11:57;19.50;;;3.72;;
64500;SDS011;50874;24.150;-110.320;2023-04-25T04:14:23;13.65;;;2.75;;
64500;SDS011;50874;24.150;-110.320;2023-04-25T04:16:50;22.17;;;4.22;;
64500;SDS011;50874;24.150;-110.320;2023-04-25T04:19:17;14.77;;;4.00;;
64500;SDS011;50874;24.150;-110.320;2023-04-25T04:21:44;15.00;;;3.72;;
64500;SDS011;50874;24.150;-110.320;2023-04-25T04:24:10;16.50;;;3.30;;
64500;SDS011;50874;24.150;-110.320;2023-04-25T04:26:37;17.98;;;2.85;;
64500;SDS011;50874;24.150;-110.320;2023-04-25T04:29:04;18.45;;;3.88;;
64500;SDS011;50874;24.150;-110.320;2023-04-25T04:31:30;14.18;;;2.58;;
64500;SDS011;50874;24.150;-110.320;2023-04-25T04:33:57;15.23;;;3.00;;
64500;SDS011;50874;24.150;-110.320;2023-04-25T04:36:24;16.08;;;3.33;;
64500;SDS011;50874;24.150;-110.320;2023-04-25T04:38:51;22.17;;;4.00;;
64500;SDS011;50874;24.150;-110.320;2023-04-25T04:41:18;17.65;;;3.15;;
64500;SDS011;50874;24.150;-110.320;2023-04-25T04:43:44;15.10;;;2.67;;
64500;SDS011;50874;24.150;-110.320;2023-04-25T04:46:11;13.80;;;2.85;;
64500;SDS011;50874;24.150;-110.320;2023-04-25T04:48:38;13.98;;;2.70;;
64500;SDS011;50874;24.150;-110.320;2023-04-25T04:51:05;21.30;;;3.58;;
64500;SDS011;50874;24.150;-110.320;2023-04-25T04:53:32;11.98;;;3.20;;
64500;SDS011;50874;24.150;-110.320;2023-04-25T04:55:58;16.70;;;2.90;;
64500;SDS011;50874;24.150;-110.320;2023-04-25T04:58:25;14.82;;;3.33;;
64500;SDS011;50874;24.150;-110.320;2023-04-25T05:00:54;15.48;;;3.25;;
64500;SDS011;50874;24.150;-110.320;2023-04-25T05:03:21;20.10;;;4.07;;
64500;SDS011;50874;24.150;-110.320;2023-04-25T05:05:47;23.27;;;4.75;;
64500;SDS011;50874;24.150;-110.320;2023-04-25T05:08:14;18.88;;;3.65;;
64500;SDS011;50874;24.150;-110.320;2023-04-25T05:10:40;17.25;;;3.95;;
64500;SDS011;50874;24.150;-110.320;2023-04-25T05:13:07;18.83;;;4.30;;
64500;SDS011;50874;24.150;-110.320;2023-04-25T05:15:33;18.67;;;3.88;;
64500;SDS011;50874;24.150;-110.320;2023-04-25T05:18:00;15.82;;;3.30;;
64500;SDS011;50874;24.150;-110.320;2023-04-25T05:20:26;13.25;;;3.83;;
64500;SDS011;50874;24.150;-110.320;2023-04-25T05:22:53;31.95;;;4.10;;
64500;SDS011;50874;24.150;-110.320;2023-04-25T05:25:19;18.73;;;2.97;;
64500;SDS011;50874;24.150;-110.320;2023-04-25T05:27:46;10.05;;;3.42;;
64500;SDS011;50874;24.150;-110.320;2023-04-25T05:30:12;11.88;;;3.00;;
64500;SDS011;50874;24.150;-110.320;2023-04-25T05:32:38;12.98;;;3.45;;
64500;SDS011;50874;24.150;-110.320;2023-04-25T05:35:05;20.73;;;3.92;;
64500;SDS011;50874;24.150;-110.320;2023-04-25T05:37:32;18.05;;;3.70;;
64500;SDS011;50874;24.150;-110.320;2023-04-25T05:39:59;17.30;;;3.50;;
64500;SDS011;50874;24.150;-110.320;2023-04-25T05:42:25;19.17;;;3.72;;
64500;SDS011;50874;24.150;-110.320;2023-04-25T05:44:51;24.75;;;4.30;;
64500;SDS011;50874;24.150;-110.320;2023-04-25T05:47:18;17.58;;;3.55;;
64500;SDS011;50874;24.150;-110.320;2023-04-25T05:49:44;13.73;;;3.65;;
64500;SDS011;50874;24.150;-110.320;2023-04-25T05:52:11;18.25;;;3.00;;
64500;SDS011;50874;24.150;-110.320;2023-04-25T05:54:37;18.20;;;3.90;;
64500;SDS011;50874;24.150;-110.320;2023-04-25T05:57:04;15.40;;;3.53;;
64500;SDS011;50874;24.150;-110.320;2023-04-25T05:59:30;20.50;;;4.15;;
64500;SDS011;50874;24.150;-110.320;2023-04-25T06:01:56;11.10;;;3.33;;
64500;SDS011;50874;24.150;-110.320;2023-04-25T06:04:23;18.23;;;4.57;;
64500;SDS011;50874;24.150;-110.320;2023-04-25T06:06:50;16.73;;;3.38;;
64500;SDS011;50874;24.150;-110.320;2023-04-25T06:09:17;14.65;;;3.13;;
64500;SDS011;50874;24.150;-110.320;2023-04-25T06:11:43;18.83;;;3.30;;
64500;SDS011;50874;24.150;-110.320;2023-04-25T06:14:10;20.45;;;3.55;;
64500;SDS011;50874;24.150;-110.320;2023-04-25T06:16:36;16.67;;;2.92;;
64500;SDS011;50874;24.150;-110.320;2023-04-25T06:19:02;19.15;;;3.10;;
64500;SDS011;50874;24.150;-110.320;2023-04-25T06:21:29;12.40;;;2.90;;
64500;SDS011;50874;24.150;-110.320;2023-04-25T06:23:56;26.40;;;4.63;;
64500;SDS011;50874;24.150;-110.320;2023-04-25T06:26:23;15.15;;;3.90;;
64500;SDS011;50874;24.150;-110.320;2023-04-25T06:28:49;22.70;;;3.55;;
64500;SDS011;50874;24.150;-110.320;2023-04-25T06:31:16;19.90;;;3.83;;
64500;SDS011;50874;24.150;-110.320;2023-04-25T06:33:42;11.52;;;3.53;;
64500;SDS011;50874;24.150;-110.320;2023-04-25T06:36:08;14.35;;;3.08;;
64500;SDS011;50874;24.150;-110.320;2023-04-25T06:38:35;11.18;;;2.67;;
64500;SDS011;50874;24.150;-110.320;2023-04-25T06:41:02;14.85;;;3.92;;
64500;SDS011;50874;24.150;-110.320;2023-04-25T06:43:28;24.55;;;3.83;;
64500;SDS011;50874;24.150;-110.320;2023-04-25T06:45:58;16.90;;;3.60;;
64500;SDS011;50874;24.150;-110.320;2023-04-25T06:48:26;17.33;;;3.42;;
64500;SDS011;50874;24.150;-110.320;2023-04-25T06:50:53;23.13;;;4.38;;
64500;SDS011;50874;24.150;-110.320;2023-04-25T06:53:20;16.65;;;3.30;;
64500;SDS011;50874;24.150;-110.320;2023-04-25T06:55:46;22.50;;;3.70;;
64500;SDS011;50874;24.150;-110.320;2023-04-25T06:58:13;15.23;;;3.92;;
64500;SDS011;50874;24.150;-110.320;2023-04-25T07:00:39;11.43;;;3.15;;
64500;SDS011;50874;24.150;-110.320;2023-04-25T07:03:06;16.60;;;3.53;;
64500;SDS011;50874;24.150;-110.320;2023-04-25T07:05:32;18.42;;;3.38;;
64500;SDS011;50874;24.150;-110.320;2023-04-25T07:07:59;21.65;;;4.43;;
64500;SDS011;50874;24.150;-110.320;2023-04-25T07:10:25;13.32;;;3.90;;
64500;SDS011;50874;24.150;-110.320;2023-04-25T07:12:51;15.82;;;4.15;;
64500;SDS011;50874;24.150;-110.320;2023-04-25T07:15:18;17.55;;;3.10;;
64500;SDS011;50874;24.150;-110.320;2023-04-25T07:17:44;18.67;;;3.83;;
64500;SDS011;50874;24.150;-110.320;2023-04-25T07:20:11;28.85;;;3.67;;
64500;SDS011;50874;24.150;-110.320;2023-04-25T07:22:37;17.17;;;3.33;;
64500;SDS011;50874;24.150;-110.320;2023-04-25T07:25:04;17.27;;;3.10;;
64500;SDS011;50874;24.150;-110.320;2023-04-25T07:27:31;18.42;;;3.85;;
64500;SDS011;50874;24.150;-110.320;2023-04-25T07:29:58;15.63;;;3.58;;
64500;SDS011;50874;24.150;-110.320;2023-04-25T07:32:25;23.38;;;4.05;;
64500;SDS011;50874;24.150;-110.320;2023-04-25T07:34:52;28.85;;;3.80;;
64500;SDS011;50874;24.150;-110.320;2023-04-25T07:37:18;16.05;;;3.22;;
64500;SDS011;50874;24.150;-110.320;2023-04-25T07:39:45;14.50;;;4.28;;
64500;SDS011;50874;24.150;-110.320;2023-04-25T07:42:12;24.05;;;4.20;;
64500;SDS011;50874;24.150;-110.320;2023-04-25T07:44:38;24.35;;;4.32;;
64500;SDS011;50874;24.150;-110.320;2023-04-25T07:47:05;20.25;;;3.70;;
64500;SDS011;50874;24.150;-110.320;2023-04-25T07:49:33;23.05;;;3.85;;
64500;SDS011;50874;24.150;-110.320;2023-04-25T07:52:00;16.55;;;3.67;;
64500;SDS011;50874;24.150;-110.320;2023-04-25T07:54:27;19.85;;;4.20;;
64500;SDS011;50874;24.150;-110.320;2023-04-25T07:56:54;22.67;;;4.70;;
64500;SDS011;50874;24.150;-110.320;2023-04-25T07:59:20;16.17;;;3.55;;
64500;SDS011;50874;24.150;-110.320;2023-04-25T08:01:47;19.33;;;3.92;;
64500;SDS011;50874;24.150;-110.320;2023-04-25T08:04:14;17.55;;;3.70;;
64500;SDS011;50874;24.150;-110.320;2023-04-25T08:06:40;20.40;;;4.47;;
64500;SDS011;50874;24.150;-110.320;2023-04-25T08:09:07;22.25;;;4.65;;
64500;SDS011;50874;24.150;-110.320;2023-04-25T08:11:34;19.23;;;5.90;;
64500;SDS011;50874;24.150;-110.320;2023-04-25T08:14:01;20.98;;;4.38;;
64500;SDS011;50874;24.150;-110.320;2023-04-25T08:16:28;24.92;;;3.97;;
64500;SDS011;50874;24.150;-110.320;2023-04-25T08:18:55;24.85;;;4.07;;
64500;SDS011;50874;24.150;-110.320;2023-04-25T08:21:21;18.73;;;4.70;;
64500;SDS011;50874;24.150;-110.320;2023-04-25T08:23:48;23.95;;;5.03;;
64500;SDS011;50874;24.150;-110.320;2023-04-25T08:26:15;20.90;;;3.95;;
64500;SDS011;50874;24.150;-110.320;2023-04-25T08:28:41;24.33;;;4.90;;
64500;SDS011;50874;24.150;-110.320;2023-04-25T08:31:08;20.80;;;3.83;;
64500;SDS011;50874;24.150;-110.320;2023-04-25T08:33:34;16.77;;;4.93;;
64500;SDS011;50874;24.150;-110.320;2023-04-25T08:36:01;27.85;;;5.93;;
64500;SDS011;50874;24.150;-110.320;2023-04-25T08:38:28;22.40;;;6.47;;
64500;SDS011;50874;24.150;-110.320;2023-04-25T08:40:54;22.25;;;5.03;;
64500;SDS011;50874;24.150;-110.320;2023-04-25T08:43:22;26.33;;;5.65;;
64500;SDS011;50874;24.150;-110.320;2023-04-25T08:45:49;19.05;;;4.35;;
64500;SDS011;50874;24.150;-110.320;2023-04-25T08:48:18;17.58;;;4.72;;
64500;SDS011;50874;24.150;-110.320;2023-04-25T08:50:49;23.40;;;5.00;;
64500;SDS011;50874;24.150;-110.320;2023-04-25T08:53:16;19.60;;;5.20;;
64500;SDS011;50874;24.150;-110.320;2023-04-25T08:55:45;19.67;;;4.50;;
64500;SDS011;50874;24.150;-110.320;2023-04-25T08:58:12;27.50;;;6.00;;
64500;SDS011;50874;24.150;-110.320;2023-04-25T09:00:39;17.85;;;5.25;;
64500;SDS011;50874;24.150;-110.320;2023-04-25T09:03:06;20.25;;;5.03;;
64500;SDS011;50874;24.150;-110.320;2023-04-25T09:05:33;32.60;;;6.00;;
64500;SDS011;50874;24.150;-110.320;2023-04-25T09:08:01;21.50;;;5.60;;
64500;SDS011;50874;24.150;-110.320;2023-04-25T09:10:27;26.83;;;6.90;;
64500;SDS011;50874;24.150;-110.320;2023-04-25T09:13:08;23.08;;;5.63;;
64500;SDS011;50874;24.150;-110.320;2023-04-25T09:15:48;19.38;;;5.72;;
64500;SDS011;50874;24.150;-110.320;2023-04-25T09:18:26;28.70;;;5.18;;
64500;SDS011;50874;24.150;-110.320;2023-04-25T09:20:54;21.67;;;5.30;;
64500;SDS011;50874;24.150;-110.320;2023-04-25T09:23:21;21.35;;;5.70;;
64500;SDS011;50874;24.150;-110.320;2023-04-25T09:25:49;28.98;;;5.90;;
64500;SDS011;50874;24.150;-110.320;2023-04-25T09:28:16;28.17;;;6.05;;
64500;SDS011;50874;24.150;-110.320;2023-04-25T09:30:49;18.50;;;5.75;;
64500;SDS011;50874;24.150;-110.320;2023-04-25T09:33:15;22.70;;;5.07;;
64500;SDS011;50874;24.150;-110.320;2023-04-25T09:35:43;24.30;;;5.85;;
64500;SDS011;50874;24.150;-110.320;2023-04-25T09:38:18;17.20;;;5.47;;
64500;SDS011;50874;24.150;-110.320;2023-04-25T09:40:45;23.33;;;6.30;;
64500;SDS011;50874;24.150;-110.320;2023-04-25T09:43:19;25.27;;;5.65;;
64500;SDS011;50874;24.150;-110.320;2023-04-25T09:45:46;23.50;;;5.88;;
64500;SDS011;50874;24.150;-110.320;2023-04-25T09:48:16;23.45;;;5.95;;
64500;SDS011;50874;24.150;-110.320;2023-04-25T09:50:43;17.70;;;5.20;;
64500;SDS011;50874;24.150;-110.320;2023-04-25T09:53:10;25.05;;;5.75;;
64500;SDS011;50874;24.150;-110.320;2023-04-25T09:55:37;21.00;;;6.30;;
64500;SDS011;50874;24.150;-110.320;2023-04-25T09:58:04;28.70;;;6.55;;
64500;SDS011;50874;24.150;-110.320;2023-04-25T10:00:34;16.80;;;6.25;;
64500;SDS011;50874;24.150;-110.320;2023-04-25T10:03:01;22.17;;;6.22;;
64500;SDS011;50874;24.150;-110.320;2023-04-25T10:05:29;24.00;;;5.90;;
64500;SDS011;50874;24.150;-110.320;2023-04-25T10:07:58;20.90;;;5.43;;
64500;SDS011;50874;24.150;-110.320;2023-04-25T10:10:25;22.55;;;5.07;;
64500;SDS011;50874;24.150;-110.320;2023-04-25T10:12:53;23.23;;;5.55;;
64500;SDS011;50874;24.150;-110.320;2023-04-25T10:15:21;32.22;;;6.13;;
64500;SDS011;50874;24.150;-110.320;2023-04-25T10:17:49;19.42;;;5.70;;
64500;SDS011;50874;24.150;-110.320;2023-04-25T10:20:15;29.30;;;6.55;;
64500;SDS011;50874;24.150;-110.320;2023-04-25T10:22:44;25.33;;;5.70;;
64500;SDS011;50874;24.150;-110.320;2023-04-25T10:25:12;22.52;;;5.35;;
64500;SDS011;50874;24.150;-110.320;2023-04-25T10:27:40;24.58;;;6.13;;
64500;SDS011;50874;24.150;-110.320;2023-04-25T10:30:07;23.65;;;5.97;;
64500;SDS011;50874;24.150;-110.320;2023-04-25T10:32:39;24.75;;;5.82;;
64500;SDS011;50874;24.150;-110.320;2023-04-25T10:35:17;46.00;;;6.63;;
64500;SDS011;50874;24.150;-110.320;2023-04-25T10:40:26;29.33;;;5.88;;
64500;SDS011;50874;24.150;-110.320;2023-04-25T10:42:53;26.63;;;5.57;;
64500;SDS011;50874;24.150;-110.320;2023-04-25T10:45:20;33.58;;;6.30;;
64500;SDS011;50874;24.150;-110.320;2023-04-25T10:47:47;23.55;;;5.75;;
64500;SDS011;50874;24.150;-110.320;2023-04-25T10:50:16;23.67;;;5.75;;
64500;SDS011;50874;24.150;-110.320;2023-04-25T10:52:43;16.77;;;5.05;;
64500;SDS011;50874;24.150;-110.320;2023-04-25T10:55:10;25.17;;;5.85;;
64500;SDS011;50874;24.150;-110.320;2023-04-25T10:57:43;19.63;;;5.15;;
64500;SDS011;50874;24.150;-110.320;2023-04-25T11:00:19;19.23;;;5.22;;
64500;SDS011;50874;24.150;-110.320;2023-04-25T11:02:48;21.38;;;5.90;;
64500;SDS011;50874;24.150;-110.320;2023-04-25T11:07:51;13.93;;;4.43;;
64500;SDS011;50874;24.150;-110.320;2023-04-25T11:10:19;27.33;;;4.68;;
64500;SDS011;50874;24.150;-110.320;2023-04-25T11:12:46;20.50;;;5.00;;
64500;SDS011;50874;24.150;-110.320;2023-04-25T11:15:13;25.67;;;4.60;;
64500;SDS011;50874;24.150;-110.320;2023-04-25T11:17:39;22.52;;;5.68;;
64500;SDS011;50874;24.150;-110.320;2023-04-25T11:20:07;18.67;;;5.22;;
64500;SDS011;50874;24.150;-110.320;2023-04-25T11:22:37;26.67;;;6.00;;
64500;SDS011;50874;24.150;-110.320;2023-04-25T11:25:06;20.30;;;5.68;;
64500;SDS011;50874;24.150;-110.320;2023-04-25T11:27:33;21.30;;;5.75;;
64500;SDS011;50874;24.150;-110.320;2023-04-25T11:30:09;26.55;;;5.68;;
64500;SDS011;50874;24.150;-110.320;2023-04-25T11:32:38;20.15;;;4.28;;
64500;SDS011;50874;24.150;-110.320;2023-04-25T11:35:06;17.20;;;5.50;;
64500;SDS011;50874;24.150;-110.320;2023-04-25T11:37:33;21.90;;;4.50;;
64500;SDS011;50874;24.150;-110.320;2023-04-25T11:40:00;17.90;;;5.40;;
64500;SDS011;50874;24.150;-110.320;2023-04-25T11:42:27;20.67;;;5.32;;
64500;SDS011;50874;24.150;-110.320;2023-04-25T11:44:54;17.70;;;4.57;;
64500;SDS011;50874;24.150;-110.320;2023-04-25T11:47:26;25.55;;;4.68;;
64500;SDS011;50874;24.150;-110.320;2023-04-25T11:49:55;17.80;;;4.80;;
64500;SDS011;50874;24.150;-110.320;2023-04-25T11:52:22;26.23;;;5.80;;
64500;SDS011;50874;24.150;-110.320;2023-04-25T11:54:49;19.58;;;4.75;;
64500;SDS011;50874;24.150;-110.320;2023-04-25T11:57:18;22.90;;;4.82;;
64500;SDS011;50874;24.150;-110.320;2023-04-25T11:59:45;25.50;;;5.25;;
64500;SDS011;50874;24.150;-110.320;2023-04-25T12:02:23;20.20;;;5.45;;
64500;SDS011;50874;24.150;-110.320;2023-04-25T12:04:51;17.50;;;5.65;;
64500;SDS011;50874;24.150;-110.320;2023-04-25T12:07:17;19.60;;;4.85;;
64500;SDS011;50874;24.150;-110.320;2023-04-25T12:09:51;24.65;;;5.03;;
64500;SDS011;50874;24.150;-110.320;2023-04-25T12:12:18;16.77;;;3.95;;
64500;SDS011;50874;24.150;-110.320;2023-04-25T12:14:46;18.75;;;4.53;;
64500;SDS011;50874;24.150;-110.320;2023-04-25T12:17:16;23.98;;;5.72;;
64500;SDS011;50874;24.150;-110.320;2023-04-25T12:19:43;21.77;;;5.45;;
64500;SDS011;50874;24.150;-110.320;2023-04-25T12:22:22;16.75;;;4.15;;
64500;SDS011;50874;24.150;-110.320;2023-04-25T12:24:50;17.30;;;4.32;;
64500;SDS011;50874;24.150;-110.320;2023-04-25T12:27:18;19.80;;;4.55;;
64500;SDS011;50874;24.150;-110.320;2023-04-25T12:29:51;22.35;;;4.05;;
64500;SDS011;50874;24.150;-110.320;2023-04-25T12:32:19;14.70;;;3.92;;
64500;SDS011;50874;24.150;-110.320;2023-04-25T12:34:46;17.60;;;3.42;;
64500;SDS011;50874;24.150;-110.320;2023-04-25T12:37:12;18.75;;;3.88;;
64500;SDS011;50874;24.150;-110.320;2023-04-25T12:39:40;20.90;;;4.97;;
64500;SDS011;50874;24.150;-110.320;2023-04-25T12:42:06;19.75;;;4.88;;
64500;SDS011;50874;24.150;-110.320;2023-04-25T12:44:33;23.27;;;4.13;;
64500;SDS011;50874;24.150;-110.320;2023-04-25T12:47:00;12.98;;;3.58;;
64500;SDS011;50874;24.150;-110.320;2023-04-25T12:49:28;20.70;;;3.88;;
64500;SDS011;50874;24.150;-110.320;2023-04-25T12:51:55;21.45;;;4.50;;
64500;SDS011;50874;24.150;-110.320;2023-04-25T12:54:21;17.20;;;4.15;;
64500;SDS011;50874;24.150;-110.320;2023-04-25T12:56:48;16.80;;;3.88;;
64500;SDS011;50874;24.150;-110.320;2023-04-25T12:59:15;24.38;;;4.57;;
64500;SDS011;50874;24.150;-110.320;2023-04-25T13:01:42;24.25;;;4.25;;
64500;SDS011;50874;24.150;-110.320;2023-04-25T13:04:09;23.48;;;4.75;;
64500;SDS011;50874;24.150;-110.320;2023-04-25T13:06:35;18.95;;;3.92;;
64500;SDS011;50874;24.150;-110.320;2023-04-25T13:09:02;21.42;;;4.00;;
64500;SDS011;50874;24.150;-110.320;2023-04-25T13:11:29;17.90;;;4.40;;
64500;SDS011;50874;24.150;-110.320;2023-04-25T13:13:56;13.57;;;4.30;;
64500;SDS011;50874;24.150;-110.320;2023-04-25T13:16:22;21.02;;;3.83;;
64500;SDS011;50874;24.150;-110.320;2023-04-25T13:18:49;23.85;;;4.20;;
64500;SDS011;50874;24.150;-110.320;2023-04-25T13:21:15;20.55;;;4.82;;
64500;SDS011;50874;24.150;-110.320;2023-04-25T13:23:42;19.02;;;4.60;;
64500;SDS011;50874;24.150;-110.320;2023-04-25T13:26:09;20.45;;;4.22;;
64500;SDS011;50874;24.150;-110.320;2023-04-25T13:28:36;16.75;;;4.15;;
64500;SDS011;50874;24.150;-110.320;2023-04-25T13:31:02;11.77;;;3.92;;
64500;SDS011;50874;24.150;-110.320;2023-04-25T13:33:29;12.32;;;3.58;;
64500;SDS011;50874;24.150;-110.320;2023-04-25T13:35:55;10.77;;;3.33;;
64500;SDS011;50874;24.150;-110.320;2023-04-25T13:38:23;16.40;;;3.60;;
64500;SDS011;50874;24.150;-110.320;2023-04-25T13:40:51;11.82;;;3.28;;
64500;SDS011;50874;24.150;-110.320;2023-04-25T13:43:21;17.30;;;3.67;;
64500;SDS011;50874;24.150;-110.320;2023-04-25T13:45:48;13.63;;;3.88;;
64500;SDS011;50874;24.150;-110.320;2023-04-25T13:48:15;20.08;;;3.75;;
64500;SDS011;50874;24.150;-110.320;2023-04-25T13:50:43;17.02;;;3.78;;
64500;SDS011;50874;24.150;-110.320;2023-04-25T13:53:10;21.77;;;4.50;;
64500;SDS011;50874;24.150;-110.320;2023-04-25T13:55:37;19.60;;;3.80;;
64500;SDS011;50874;24.150;-110.320;2023-04-25T13:58:04;19.08;;;3.40;;
64500;SDS011;50874;24.150;-110.320;2023-04-25T14:00:34;17.35;;;3.50;;
64500;SDS011;50874;24.150;-110.320;2023-04-25T14:03:03;23.15;;;4.68;;
64500;SDS011;50874;24.150;-110.320;2023-04-25T14:05:32;18.63;;;4.55;;
64500;SDS011;50874;24.150;-110.320;2023-04-25T14:08:04;20.58;;;3.85;;